| time (UTC) | temp F | wind direction | speed MPH | gust MPH | rain 1hr in | rain 24hr in | rain mn in | humidity % | barometer mb |
| 20260902234655 | 90 | 158 | 0.0 | 11.0 | 0.00 | 0.00 | 0.00 | 32 | 1017.0 |
| 20260902234149 | 90 | 146 | 0.0 | 13.0 | 0.00 | 0.00 | 0.00 | 31 | 1016.7 |
| 20260902233645 | 90 | 138 | 2.0 | 13.0 | 0.00 | 0.00 | 0.00 | 32 | 1016.7 |
| 20260902233357 | 89 | 134 | 2.0 | 9.0 | 0.00 | 0.00 | 0.00 | 31 | 1017.0 |
| 20260902232636 | 89 | 153 | 1.0 | 13.0 | 0.00 | 0.00 | 0.00 | 31 | 1017.0 |
| 20260902232127 | 89 | 142 | 0.0 | 13.0 | 0.00 | 0.00 | 0.00 | 32 | 1017.0 |
| 20260902231623 | 89 | 186 | 0.0 | 13.0 | 0.00 | 0.00 | 0.00 | 35 | 1016.7 |
| 20260902231125 | 91 | 152 | 2.0 | 13.0 | 0.00 | 0.00 | 0.00 | 31 | 1017.3 |
| 20260902230840 | 91 | 137 | 2.0 | 13.0 | 0.00 | 0.00 | 0.00 | 31 | 1017.3 |
| 20260902230115 | 90 | 123 | 0.0 | 10.0 | 0.00 | 0.00 | 0.00 | 31 | 1017.3 |
| 20260902225606 | 91 | 138 | 0.0 | 10.0 | 0.00 | 0.00 | 0.00 | 31 | 1017.0 |
| 20260902225053 | 90 | 101 | 3.0 | 11.0 | 0.00 | 0.00 | 0.00 | 31 | 1017.0 |
| 20260902224535 | 91 | 132 | 5.0 | 13.0 | 0.00 | 0.00 | 0.00 | 31 | 1017.0 |
| 20260902224022 | 93 | 123 | 4.0 | 13.0 | 0.00 | 0.00 | 0.00 | 30 | 1017.0 |
| 20260902223515 | 93 | 114 | 6.0 | 14.0 | 0.00 | 0.00 | 0.00 | 29 | 1017.3 |
| 20260902223007 | 94 | 139 | 8.0 | 14.0 | 0.00 | 0.00 | 0.00 | 29 | 1017.3 |
| 20260902222457 | 94 | 120 | 3.0 | 15.0 | 0.00 | 0.00 | 0.00 | 28 | 1017.0 |
| 20260902221944 | 94 | 142 | 11.0 | 15.0 | 0.00 | 0.00 | 0.00 | 29 | 1017.3 |
| 20260902221435 | 93 | 123 | 8.0 | 13.0 | 0.00 | 0.00 | 0.00 | 30 | 1017.0 |
| 20260902220935 | 92 | 115 | 7.0 | 13.0 | 0.00 | 0.00 | 0.00 | 30 | 1017.3 |
| 20260902220416 | 92 | 139 | 0.0 | 11.0 | 0.00 | 0.00 | 0.00 | 31 | 1017.3 |
| 20260902215915 | 93 | 166 | 2.0 | 4.0 | 0.00 | 0.00 | 0.00 | 27 | 1017.3 |
| 20260902215407 | 93 | 195 | 0.0 | 7.0 | 0.00 | 0.00 | 0.00 | 27 | 1017.3 |
| 20260902214856 | 94 | 182 | 4.0 | 7.0 | 0.00 | 0.00 | 0.00 | 26 | 1017.3 |
| 20260902214344 | 95 | 206 | 0.0 | 9.0 | 0.00 | 0.00 | 0.00 | 26 | 1017.3 |
| 20260902213835 | 96 | 162 | 0.0 | 9.0 | 0.00 | 0.00 | 0.00 | 25 | 1017.0 |
| 20260902213335 | 95 | 133 | 0.0 | 10.0 | 0.00 | 0.00 | 0.00 | 25 | 1017.3 |
| 20260902212833 | 95 | 138 | 1.0 | 11.0 | 0.00 | 0.00 | 0.00 | 26 | 1017.7 |
| 20260902212803 | 95 | 137 | 0.0 | 11.0 | 0.00 | 0.00 | 0.00 | 25 | 1017.7 |
| 20260902211811 | 96 | 192 | 1.0 | 13.0 | 0.00 | 0.00 | 0.00 | 24 | 1017.3 |
| 20260902211459 | 96 | 171 | 0.0 | 4.0 | 0.00 | 0.00 | 0.00 | 26 | 1017.7 |
| 20260902211344 | 96 | 175 | 0.0 | 13.0 | 0.00 | 0.00 | 0.00 | 24 | 1017.3 |
| 20260902210501 | 93 | 140 | 0.0 | 6.0 | 0.00 | 0.00 | 0.00 | 27 | 1017.7 |
| 20260902205734 | 94 | 156 | 3.0 | 6.0 | 0.00 | 0.00 | 0.00 | 27 | 1018.0 |
| 20260902205232 | 95 | 203 | 2.0 | 9.0 | 0.00 | 0.00 | 0.00 | 25 | 1018.0 |
| 20260902204714 | 95 | 171 | 0.0 | 9.0 | 0.00 | 0.00 | 0.00 | 27 | 1018.0 |
| 20260902204432 | 96 | 137 | 0.0 | 10.0 | 0.00 | 0.00 | 0.00 | 27 | 1018.0 |
| 20260902203659 | 96 | 170 | 0.0 | 14.0 | 0.00 | 0.00 | 0.00 | 27 | 1018.3 |
| 20260902203148 | 95 | 97 | 1.0 | 14.0 | 0.00 | 0.00 | 0.00 | 27 | 1018.3 |
| 20260902202637 | 98 | 182 | 0.0 | 8.0 | 0.00 | 0.00 | 0.00 | 25 | 1018.3 |
| 20260902202135 | 97 | 190 | 0.0 | 8.0 | 0.00 | 0.00 | 0.00 | 26 | 1018.3 |
| 20260902201635 | 96 | 179 | 0.0 | 3.0 | 0.00 | 0.00 | 0.00 | 27 | 1018.3 |
| 20260902201114 | 94 | 202 | 0.0 | 0.0 | 0.00 | 0.00 | 0.00 | 28 | 1018.3 |
| 20260902200613 | 94 | 147 | 0.0 | 0.0 | 0.00 | 0.00 | 0.00 | 29 | 1018.7 |
| 20260902200334 | 92 | 159 | 0.0 | 3.0 | 0.00 | 0.00 | 0.00 | 30 | 1018.7 |
| 20260902195614 | 91 | 135 | 0.0 | 6.0 | 0.00 | 0.00 | 0.00 | 31 | 1018.3 |
| 20260902195333 | 92 | 186 | 3.0 | 6.0 | 0.00 | 0.00 | 0.00 | 30 | 1018.7 |
| 20260902194825 | 92 | 177 | 0.0 | 3.0 | 0.00 | 0.00 | 0.00 | 30 | 1018.7 |
| 20260902194052 | 92 | 189 | 0.0 | 10.0 | 0.00 | 0.00 | 0.00 | 30 | 1019.0 |
| 20260902193541 | 94 | 145 | 0.0 | 10.0 | 0.00 | 0.00 | 0.00 | 29 | 1019.0 |
| 20260902193031 | 96 | 188 | 0.0 | 6.0 | 0.00 | 0.00 | 0.00 | 28 | 1019.0 |
| 20260902192515 | 95 | 199 | 0.0 | 8.0 | 0.00 | 0.00 | 0.00 | 28 | 1019.0 |
| 20260902192009 | 95 | 125 | 4.0 | 9.0 | 0.00 | 0.00 | 0.00 | 27 | 1019.4 |
| 20260902191458 | 95 | 323 | 0.0 | 9.0 | 0.00 | 0.00 | 0.00 | 28 | 1019.0 |
| 20260902190947 | 97 | 195 | 0.0 | 8.0 | 0.00 | 0.00 | 0.00 | 27 | 1019.0 |
| 20260902190436 | 94 | 151 | 0.0 | 3.0 | 0.00 | 0.00 | 0.00 | 28 | 1019.4 |
| 20260902185915 | 94 | 107 | 0.0 | 6.0 | 0.00 | 0.00 | 0.00 | 30 | 1019.4 |
| 20260902185415 | 94 | 188 | 0.0 | 6.0 | 0.00 | 0.00 | 0.00 | 28 | 1019.4 |
| 20260902185126 | 95 | 191 | 0.0 | 4.0 | 0.00 | 0.00 | 0.00 | 30 | 1019.4 |
| 20260902184831 | 95 | 179 | 0.0 | 4.0 | 0.00 | 0.00 | 0.00 | 29 | 1019.7 |
| 20260902184103 | 94 | 175 | 0.0 | 7.0 | 0.00 | 0.00 | 0.00 | 29 | 1019.7 |
| 20260902183333 | 92 | 140 | 0.0 | 13.0 | 0.00 | 0.00 | 0.00 | 32 | 1020.0 |
| 20260902182834 | 92 | 134 | 7.0 | 13.0 | 0.00 | 0.00 | 0.00 | 32 | 1019.7 |
| 20260902182323 | 94 | 310 | 0.0 | 2.0 | 0.00 | 0.00 | 0.00 | 31 | 1020.0 |
| 20260902181812 | 94 | 184 | 0.0 | 1.0 | 0.00 | 0.00 | 0.00 | 30 | 1020.4 |
| 20260902181305 | 94 | 231 | 0.0 | 1.0 | 0.00 | 0.00 | 0.00 | 30 | 1020.4 |
| 20260902181028 | 92 | 235 | 0.0 | 6.0 | 0.00 | 0.00 | 0.00 | 32 | 1020.4 |
| 20260902180516 | 93 | 185 | 0.0 | 6.0 | 0.00 | 0.00 | 0.00 | 32 | 1020.4 |
| 20260902175735 | 92 | 156 | 0.0 | 6.0 | 0.00 | 0.00 | 0.00 | 32 | 1020.7 |
| 20260902175223 | 92 | 186 | 0.0 | 4.0 | 0.00 | 0.00 | 0.00 | 30 | 1020.7 |
| 20260902174715 | 91 | 140 | 0.0 | 10.0 | 0.00 | 0.00 | 0.00 | 33 | 1020.7 |
| 20260902174213 | 91 | 145 | 4.0 | 10.0 | 0.00 | 0.00 | 0.00 | 34 | 1020.7 |
| 20260902173934 | 90 | 182 | 1.0 | 9.0 | 0.00 | 0.00 | 0.00 | 34 | 1020.7 |
| 20260902173203 | 90 | 172 | 0.0 | 8.0 | 0.00 | 0.00 | 0.00 | 34 | 1020.7 |
| 20260902172642 | 91 | 173 | 4.0 | 8.0 | 0.00 | 0.00 | 0.00 | 34 | 1021.1 |
| 20260902172136 | 91 | 183 | 0.0 | 6.0 | 0.00 | 0.00 | 0.00 | 34 | 1020.7 |
| 20260902171617 | 90 | 145 | 0.0 | 8.0 | 0.00 | 0.00 | 0.00 | 35 | 1021.1 |
| 20260902171340 | 89 | 197 | 0.0 | 8.0 | 0.00 | 0.00 | 0.00 | 35 | 1020.7 |
| 20260902170603 | 90 | 177 | 0.0 | 8.0 | 0.00 | 0.00 | 0.00 | 35 | 1021.1 |
| 20260902170055 | 89 | 186 | 0.0 | 6.0 | 0.00 | 0.00 | 0.00 | 37 | 1020.7 |
| 20260902165535 | 89 | 166 | 0.0 | 3.0 | 0.00 | 0.00 | 0.00 | 38 | 1020.7 |
| 20260902165019 | 87 | 178 | 0.0 | 11.0 | 0.00 | 0.00 | 0.00 | 40 | 1021.1 |
| 20260902164516 | 87 | 182 | 0.0 | 11.0 | 0.00 | 0.00 | 0.00 | 40 | 1021.1 |
| 20260902163956 | 88 | 212 | 0.0 | 4.0 | 0.00 | 0.00 | 0.00 | 39 | 1021.4 |
| 20260902163451 | 87 | 212 | 0.0 | 3.0 | 0.00 | 0.00 | 0.00 | 40 | 1021.1 |
| 20260902162945 | 87 | 123 | 0.0 | 3.0 | 0.00 | 0.00 | 0.00 | 41 | 1021.4 |
| 20260902162435 | 87 | 186 | 0.0 | 8.0 | 0.00 | 0.00 | 0.00 | 41 | 1021.1 |
| 20260902161929 | 86 | 188 | 0.0 | 8.0 | 0.00 | 0.00 | 0.00 | 42 | 1021.1 |
| 20260902161427 | 85 | 180 | 0.0 | 8.0 | 0.00 | 0.00 | 0.00 | 42 | 1021.1 |
| 20260902160920 | 86 | 188 | 4.0 | 7.0 | 0.00 | 0.00 | 0.00 | 43 | 1021.1 |
| 20260902160421 | 85 | 183 | 0.0 | 10.0 | 0.00 | 0.00 | 0.00 | 43 | 1021.1 |
| 20260902155916 | 84 | 191 | 0.0 | 10.0 | 0.00 | 0.00 | 0.00 | 44 | 1021.1 |
| 20260902155358 | 83 | 185 | 0.0 | 9.0 | 0.00 | 0.00 | 0.00 | 45 | 1021.1 |
| 20260902154856 | 83 | 179 | 0.0 | 9.0 | 0.00 | 0.00 | 0.00 | 45 | 1021.1 |
| 20260902154342 | 83 | 188 | 0.0 | 7.0 | 0.00 | 0.00 | 0.00 | 46 | 1021.1 |
| 20260902153839 | 82 | 126 | 1.0 | 13.0 | 0.00 | 0.00 | 0.00 | 46 | 1021.1 |
| 20260902153335 | 81 | 209 | 0.0 | 10.0 | 0.00 | 0.00 | 0.00 | 47 | 1021.1 |
| 20260902152836 | 81 | 115 | 4.0 | 8.0 | 0.00 | 0.00 | 0.00 | 48 | 1021.1 |
| 20260902152521 | 81 | 189 | 1.0 | 9.0 | 0.00 | 0.00 | 0.00 | 49 | 1021.1 |
| 20260902152410 | 81 | 180 | 0.0 | 8.0 | 0.00 | 0.00 | 0.00 | 48 | 1021.4 |
| 20260902151322 | 81 | 183 | 2.0 | 9.0 | 0.00 | 0.00 | 0.00 | 49 | 1021.1 |
| 20260902150820 | 81 | 177 | 4.0 | 10.0 | 0.00 | 0.00 | 0.00 | 49 | 1021.4 |
| 20260902150315 | 80 | 162 | 1.0 | 11.0 | 0.00 | 0.00 | 0.00 | 50 | 1021.1 |
| 20260902150028 | 79 | 188 | 0.0 | 11.0 | 0.00 | 0.00 | 0.00 | 52 | 1021.1 |
| 20260902145252 | 79 | 196 | 0.0 | 9.0 | 0.00 | 0.00 | 0.00 | 52 | 1020.7 |
| 20260902144742 | 79 | 215 | 0.0 | 8.0 | 0.00 | 0.00 | 0.00 | 52 | 1021.1 |
| 20260902144235 | 78 | 187 | 3.0 | 8.0 | 0.00 | 0.00 | 0.00 | 53 | 1021.1 |
| 20260902143939 | 79 | 170 | 0.0 | 6.0 | 0.00 | 0.00 | 0.00 | 52 | 1021.1 |
| 20260902143430 | 78 | 178 | 2.0 | 6.0 | 0.00 | 0.00 | 0.00 | 53 | 1021.1 |
| 20260902142710 | 78 | 141 | 0.0 | 6.0 | 0.00 | 0.00 | 0.00 | 53 | 1021.1 |
| 20260902142151 | 77 | 172 | 2.0 | 6.0 | 0.00 | 0.00 | 0.00 | 54 | 1021.1 |
| 20260902141646 | 77 | 205 | 0.0 | 6.0 | 0.00 | 0.00 | 0.00 | 55 | 1020.7 |
| 20260902141141 | 77 | 179 | 0.0 | 2.0 | 0.00 | 0.00 | 0.00 | 55 | 1021.1 |
| 20260902140636 | 76 | 129 | 0.0 | 0.0 | 0.00 | 0.00 | 0.00 | 55 | 1021.4 |
| 20260902140134 | 75 | 178 | 0.0 | 0.0 | 0.00 | 0.00 | 0.00 | 57 | 1021.1 |
| 20260902135632 | 75 | 176 | 0.0 | 0.0 | 0.00 | 0.00 | 0.00 | 58 | 1021.1 |
| 20260902135129 | 75 | 176 | 0.0 | 0.0 | 0.00 | 0.00 | 0.00 | 60 | 1021.1 |
| 20260902134620 | 75 | 176 | 0.0 | 0.0 | 0.00 | 0.00 | 0.00 | 60 | 1021.1 |
| 20260902134107 | 75 | 166 | 0.0 | 0.0 | 0.00 | 0.00 | 0.00 | 59 | 1021.1 |
| 20260902133608 | 74 | 161 | 0.0 | 0.0 | 0.00 | 0.00 | 0.00 | 59 | 1021.1 |
| 20260902133104 | 74 | 159 | 0.0 | 0.0 | 0.00 | 0.00 | 0.00 | 61 | 1021.1 |
| 20260902132604 | 73 | 159 | 0.0 | 0.0 | 0.00 | 0.00 | 0.00 | 62 | 1021.1 |
| 20260902132103 | 73 | 159 | 0.0 | 0.0 | 0.00 | 0.00 | 0.00 | 63 | 1020.7 |
| 20260902131559 | 72 | 158 | 0.0 | 0.0 | 0.00 | 0.00 | 0.00 | 64 | 1021.1 |
| 20260902131055 | 72 | 158 | 0.0 | 0.0 | 0.00 | 0.00 | 0.00 | 65 | 1020.7 |
| 20260902130554 | 71 | 156 | 0.0 | 0.0 | 0.00 | 0.00 | 0.00 | 66 | 1020.7 |
| 20260902130045 | 71 | 156 | 0.0 | 0.0 | 0.00 | 0.00 | 0.00 | 67 | 1020.4 |
| 20260902125545 | 70 | 156 | 0.0 | 0.0 | 0.00 | 0.00 | 0.00 | 68 | 1020.7 |
| 20260902125041 | 70 | 157 | 0.0 | 0.0 | 0.00 | 0.00 | 0.00 | 68 | 1020.4 |
| 20260902124533 | 70 | 157 | 0.0 | 0.0 | 0.00 | 0.00 | 0.00 | 68 | 1020.4 |
| 20260902124028 | 70 | 157 | 0.0 | 0.0 | 0.00 | 0.00 | 0.00 | 68 | 1020.4 |
| 20260902123528 | 70 | 156 | 0.0 | 0.0 | 0.00 | 0.00 | 0.00 | 68 | 1020.4 |
| 20260902123014 | 70 | 156 | 0.0 | 0.0 | 0.00 | 0.00 | 0.00 | 69 | 1020.0 |
| 20260902122808 | 69 | 155 | 0.0 | 0.0 | 0.00 | 0.00 | 0.00 | 69 | 1020.0 |
| 20260902122705 | 69 | 155 | 0.0 | 0.0 | 0.00 | 0.00 | 0.00 | 70 | 1020.0 |
| 20260902122050 | 69 | 155 | 0.0 | 0.0 | 0.00 | 0.00 | 0.00 | 69 | 1020.0 |
| 20260902120959 | 69 | 155 | 0.0 | 0.0 | 0.00 | 0.00 | 0.00 | 70 | 1020.0 |
| 20260902120456 | 69 | 155 | 0.0 | 0.0 | 0.00 | 0.00 | 0.00 | 71 | 1020.0 |
| 20260902115947 | 69 | 155 | 0.0 | 0.0 | 0.00 | 0.00 | 0.00 | 70 | 1019.7 |
| 20260902115432 | 69 | 155 | 0.0 | 0.0 | 0.00 | 0.00 | 0.00 | 69 | 1019.7 |
| 20260902114935 | 69 | 155 | 0.0 | 0.0 | 0.00 | 0.00 | 0.00 | 68 | 1019.7 |
| 20260902114419 | 70 | 155 | 0.0 | 0.0 | 0.00 | 0.00 | 0.00 | 68 | 1019.7 |
| 20260902113914 | 70 | 155 | 0.0 | 0.0 | 0.00 | 0.00 | 0.00 | 68 | 1020.0 |
| 20260902113413 | 70 | 155 | 0.0 | 0.0 | 0.00 | 0.00 | 0.00 | 67 | 1019.7 |
| 20260902112907 | 70 | 155 | 0.0 | 0.0 | 0.00 | 0.00 | 0.00 | 67 | 1019.7 |
| 20260902112617 | 70 | 155 | 0.0 | 0.0 | 0.00 | 0.00 | 0.00 | 67 | 1020.0 |
| 20260902112119 | 70 | 155 | 0.0 | 0.0 | 0.00 | 0.00 | 0.00 | 67 | 1019.7 |
| 20260902111824 | 70 | 155 | 0.0 | 0.0 | 0.00 | 0.00 | 0.00 | 66 | 1019.7 |
| 20260902111100 | 71 | 155 | 0.0 | 0.0 | 0.00 | 0.00 | 0.00 | 65 | 1020.0 |
| 20260902110320 | 71 | 155 | 0.0 | 0.0 | 0.00 | 0.00 | 0.00 | 65 | 1020.0 |
| 20260902105815 | 71 | 155 | 0.0 | 0.0 | 0.00 | 0.00 | 0.00 | 65 | 1020.0 |
| 20260902105311 | 71 | 160 | 0.0 | 0.0 | 0.00 | 0.00 | 0.00 | 65 | 1019.7 |
| 20260902105016 | 71 | 160 | 0.0 | 0.0 | 0.00 | 0.00 | 0.00 | 65 | 1020.0 |
| 20260902104513 | 71 | 160 | 0.0 | 0.0 | 0.00 | 0.00 | 0.00 | 64 | 1020.0 |
| 20260902104237 | 71 | 141 | 0.0 | 0.0 | 0.00 | 0.00 | 0.00 | 64 | 1020.0 |
| 20260902103238 | 71 | 140 | 0.0 | 0.0 | 0.00 | 0.00 | 0.00 | 63 | 1020.0 |
| 20260902102727 | 72 | 140 | 0.0 | 0.0 | 0.00 | 0.00 | 0.00 | 62 | 1020.0 |
| 20260902102217 | 72 | 140 | 0.0 | 0.0 | 0.00 | 0.00 | 0.00 | 62 | 1020.0 |
| 20260902101708 | 72 | 143 | 0.0 | 0.0 | 0.00 | 0.00 | 0.00 | 62 | 1019.7 |
| 20260902101208 | 72 | 131 | 0.0 | 0.0 | 0.00 | 0.00 | 0.00 | 61 | 1019.7 |
| 20260902100926 | 72 | 149 | 0.0 | 0.0 | 0.00 | 0.00 | 0.00 | 60 | 1020.0 |
| 20260902100157 | 72 | 146 | 0.0 | 0.0 | 0.00 | 0.00 | 0.00 | 60 | 1020.0 |
| 20260902095653 | 72 | 147 | 0.0 | 0.0 | 0.00 | 0.00 | 0.00 | 60 | 1020.0 |
| 20260902095408 | 72 | 148 | 0.0 | 0.0 | 0.00 | 0.00 | 0.00 | 59 | 1019.7 |
| 20260902094642 | 72 | 148 | 0.0 | 0.0 | 0.00 | 0.00 | 0.00 | 59 | 1020.0 |
| 20260902094140 | 72 | 149 | 0.0 | 0.0 | 0.00 | 0.00 | 0.00 | 58 | 1020.0 |
| 20260902093633 | 72 | 154 | 0.0 | 0.0 | 0.00 | 0.00 | 0.00 | 58 | 1020.0 |
| 20260902093339 | 72 | 172 | 0.0 | 0.0 | 0.00 | 0.00 | 0.00 | 57 | 1020.0 |
| 20260902093225 | 72 | 170 | 0.0 | 0.0 | 0.00 | 0.00 | 0.00 | 57 | 1020.0 |
| 20260902092125 | 72 | 150 | 0.0 | 0.0 | 0.00 | 0.00 | 0.00 | 56 | 1020.0 |
| 20260902091839 | 73 | 143 | 0.0 | 0.0 | 0.00 | 0.00 | 0.00 | 56 | 1019.7 |
| 20260902091111 | 72 | 150 | 0.0 | 0.0 | 0.00 | 0.00 | 0.00 | 56 | 1020.0 |
| 20260902090601 | 72 | 150 | 0.0 | 0.0 | 0.00 | 0.00 | 0.00 | 55 | 1020.0 |
| 20260902090051 | 73 | 149 | 0.0 | 0.0 | 0.00 | 0.00 | 0.00 | 55 | 1020.4 |
| 20260902085542 | 73 | 149 | 0.0 | 0.0 | 0.00 | 0.00 | 0.00 | 54 | 1020.0 |
| 20260902085042 | 73 | 149 | 0.0 | 0.0 | 0.00 | 0.00 | 0.00 | 54 | 1020.0 |
| 20260902084529 | 73 | 149 | 0.0 | 0.0 | 0.00 | 0.00 | 0.00 | 53 | 1019.7 |
| 20260902084027 | 73 | 149 | 0.0 | 0.0 | 0.00 | 0.00 | 0.00 | 53 | 1020.0 |
| 20260902083516 | 73 | 149 | 0.0 | 0.0 | 0.00 | 0.00 | 0.00 | 53 | 1020.0 |
| 20260902083016 | 74 | 149 | 0.0 | 0.0 | 0.00 | 0.00 | 0.00 | 52 | 1020.0 |
| 20260902082515 | 74 | 144 | 0.0 | 0.0 | 0.00 | 0.00 | 0.00 | 52 | 1020.0 |
| 20260902082014 | 74 | 142 | 0.0 | 0.0 | 0.00 | 0.00 | 0.00 | 51 | 1020.0 |
| 20260902081741 | 74 | 150 | 0.0 | 0.0 | 0.00 | 0.00 | 0.00 | 51 | 1020.0 |
| 20260902081011 | 74 | 159 | 0.0 | 0.0 | 0.00 | 0.00 | 0.00 | 51 | 1020.0 |
| 20260902080507 | 74 | 161 | 0.0 | 0.0 | 0.00 | 0.00 | 0.00 | 52 | 1020.0 |
| 20260902080004 | 74 | 154 | 0.0 | 2.0 | 0.00 | 0.00 | 0.00 | 51 | 1020.4 |
| 20260902075454 | 74 | 150 | 0.0 | 2.0 | 0.00 | 0.00 | 0.00 | 50 | 1020.4 |
| 20260902074945 | 74 | 130 | 0.0 | 0.0 | 0.00 | 0.00 | 0.00 | 50 | 1020.0 |
| 20260902074443 | 74 | 137 | 0.0 | 3.0 | 0.00 | 0.00 | 0.00 | 50 | 1020.4 |
| 20260902073935 | 75 | 142 | 0.0 | 3.0 | 0.00 | 0.00 | 0.00 | 50 | 1020.4 |
| 20260902073424 | 75 | 142 | 0.0 | 3.0 | 0.00 | 0.00 | 0.00 | 50 | 1020.4 |
| 20260902073142 | 75 | 153 | 0.0 | 3.0 | 0.00 | 0.00 | 0.00 | 49 | 1020.4 |
| 20260902072401 | 76 | 142 | 0.0 | 1.0 | 0.00 | 0.00 | 0.00 | 49 | 1020.7 |
| 20260902072115 | 76 | 131 | 0.0 | 6.0 | 0.00 | 0.00 | 0.00 | 48 | 1020.7 |
| 20260902071350 | 76 | 158 | 0.0 | 6.0 | 0.00 | 0.00 | 0.00 | 48 | 1020.4 |
| 20260902070846 | 76 | 142 | 1.0 | 3.0 | 0.00 | 0.00 | 0.00 | 47 | 1020.4 |
| 20260902070333 | 77 | 138 | 0.0 | 4.0 | 0.00 | 0.00 | 0.00 | 47 | 1020.4 |
| 20260902065813 | 77 | 137 | 0.0 | 4.0 | 0.00 | 0.00 | 0.00 | 46 | 1020.7 |
| 20260902065312 | 78 | 138 | 0.0 | 4.0 | 0.00 | 0.00 | 0.00 | 45 | 1020.4 |
| 20260902064811 | 78 | 146 | 0.0 | 1.0 | 0.00 | 0.00 | 0.00 | 45 | 1020.4 |
| 20260902064300 | 78 | 139 | 0.0 | 4.0 | 0.00 | 0.00 | 0.00 | 45 | 1020.7 |
| 20260902063758 | 78 | 129 | 0.0 | 4.0 | 0.00 | 0.00 | 0.00 | 45 | 1020.7 |
| 20260902063259 | 78 | 144 | 0.0 | 1.0 | 0.00 | 0.00 | 0.00 | 46 | 1020.4 |
| 20260902062749 | 78 | 17 | 0.0 | 0.0 | 0.00 | 0.00 | 0.00 | 45 | 1020.4 |
| 20260902062249 | 78 | 343 | 0.0 | 0.0 | 0.00 | 0.00 | 0.00 | 45 | 1020.4 |
| 20260902062004 | 78 | 337 | 0.0 | 0.0 | 0.00 | 0.00 | 0.00 | 46 | 1020.7 |
| 20260902061236 | 78 | 337 | 0.0 | 0.0 | 0.00 | 0.00 | 0.00 | 46 | 1020.4 |
| 20260902060715 | 77 | 336 | 0.0 | 0.0 | 0.00 | 0.00 | 0.00 | 48 | 1020.7 |
| 20260902060434 | 76 | 336 | 0.0 | 0.0 | 0.00 | 0.00 | 0.00 | 50 | 1021.1 |
| 20260902055928 | 76 | 336 | 0.0 | 2.0 | 0.00 | 0.00 | 0.00 | 50 | 1020.7 |
| 20260902055155 | 77 | 336 | 0.0 | 2.0 | 0.00 | 0.00 | 0.00 | 50 | 1020.4 |
| 20260902054637 | 77 | 336 | 0.0 | 0.0 | 0.00 | 0.00 | 0.00 | 50 | 1020.4 |
| 20260902054117 | 76 | 336 | 0.0 | 0.0 | 0.00 | 0.00 | 0.00 | 50 | 1020.4 |
| 20260902053610 | 76 | 336 | 0.0 | 0.0 | 0.00 | 0.00 | 0.00 | 50 | 1020.4 |
| 20260902053332 | 77 | 336 | 0.0 | 0.0 | 0.00 | 0.00 | 0.00 | 50 | 1020.4 |
| 20260902052830 | 77 | 336 | 0.0 | 0.0 | 0.00 | 0.00 | 0.00 | 50 | 1020.4 |
| 20260902052105 | 77 | 334 | 0.0 | 0.0 | 0.00 | 0.00 | 0.00 | 50 | 1020.4 |
| 20260902051555 | 77 | 334 | 0.0 | 0.0 | 0.00 | 0.00 | 0.00 | 49 | 1020.4 |
| 20260902051045 | 77 | 334 | 0.0 | 0.0 | 0.00 | 0.00 | 0.00 | 49 | 1020.4 |
| 20260902050544 | 77 | 334 | 0.0 | 0.0 | 0.00 | 0.00 | 0.00 | 49 | 1020.4 |
| 20260902050036 | 77 | 334 | 0.0 | 0.0 | 0.00 | 0.00 | 0.00 | 49 | 1020.4 |
| 20260902045535 | 78 | 334 | 0.0 | 1.0 | 0.00 | 0.00 | 0.00 | 49 | 1020.7 |
| 20260902045017 | 78 | 334 | 0.0 | 1.0 | 0.00 | 0.00 | 0.00 | 49 | 1020.7 |
| 20260902044502 | 78 | 331 | 0.0 | 0.0 | 0.00 | 0.00 | 0.00 | 49 | 1020.7 |
| 20260902043955 | 78 | 329 | 0.0 | 0.0 | 0.00 | 0.00 | 0.00 | 50 | 1020.7 |
| 20260902043446 | 78 | 325 | 0.0 | 0.0 | 0.00 | 0.00 | 0.00 | 50 | 1020.7 |
| 20260902042944 | 78 | 324 | 0.0 | 0.0 | 0.00 | 0.00 | 0.00 | 50 | 1020.7 |
| 20260902042431 | 77 | 324 | 0.0 | 0.0 | 0.00 | 0.00 | 0.00 | 51 | 1020.4 |
| 20260902041932 | 78 | 324 | 0.0 | 0.0 | 0.00 | 0.00 | 0.00 | 52 | 1020.4 |
| 20260902041418 | 77 | 324 | 0.0 | 0.0 | 0.00 | 0.00 | 0.00 | 52 | 1020.4 |
| 20260902040908 | 77 | 324 | 0.0 | 0.0 | 0.00 | 0.00 | 0.00 | 52 | 1020.4 |
| 20260902040403 | 77 | 324 | 0.0 | 0.0 | 0.00 | 0.00 | 0.00 | 52 | 1020.7 |
| 20260902035855 | 78 | 324 | 0.0 | 0.0 | 0.00 | 0.00 | 0.00 | 52 | 1020.4 |
| 20260902035352 | 78 | 324 | 0.0 | 0.0 | 0.00 | 0.00 | 0.00 | 52 | 1020.4 |
| 20260902034852 | 78 | 324 | 0.0 | 0.0 | 0.00 | 0.00 | 0.00 | 51 | 1020.4 |
| 20260902034346 | 78 | 324 | 0.0 | 0.0 | 0.00 | 0.00 | 0.00 | 51 | 1020.4 |
| 20260902033844 | 78 | 323 | 0.0 | 0.0 | 0.00 | 0.00 | 0.00 | 51 | 1020.4 |
| 20260902033343 | 78 | 315 | 0.0 | 0.0 | 0.00 | 0.00 | 0.00 | 52 | 1020.4 |
| 20260902032841 | 78 | 315 | 0.0 | 0.0 | 0.00 | 0.00 | 0.00 | 52 | 1020.4 |
| 20260902032339 | 78 | 315 | 0.0 | 0.0 | 0.00 | 0.00 | 0.00 | 52 | 1020.0 |
| 20260902031835 | 77 | 311 | 0.0 | 0.0 | 0.00 | 0.00 | 0.00 | 52 | 1020.4 |
| 20260902031335 | 77 | 270 | 0.0 | 0.0 | 0.00 | 0.00 | 0.00 | 53 | 1020.4 |
| 20260902031047 | 77 | 270 | 0.0 | 0.0 | 0.00 | 0.00 | 0.00 | 52 | 1020.0 |
| 20260902030321 | 77 | 270 | 0.0 | 0.0 | 0.00 | 0.00 | 0.00 | 52 | 1020.0 |
| 20260902025815 | 77 | 270 | 0.0 | 0.0 | 0.00 | 0.00 | 0.00 | 52 | 1020.0 |
| 20260902025306 | 77 | 270 | 0.0 | 0.0 | 0.00 | 0.00 | 0.00 | 52 | 1020.0 |
| 20260902024752 | 76 | 270 | 0.0 | 0.0 | 0.00 | 0.00 | 0.00 | 52 | 1020.0 |
| 20260902024250 | 77 | 270 | 0.0 | 0.0 | 0.00 | 0.00 | 0.00 | 52 | 1020.0 |
| 20260902023737 | 77 | 270 | 0.0 | 0.0 | 0.00 | 0.00 | 0.00 | 51 | 1020.0 |
| 20260902023234 | 77 | 270 | 0.0 | 0.0 | 0.00 | 0.00 | 0.00 | 51 | 1020.0 |
| 20260902022731 | 77 | 270 | 0.0 | 0.0 | 0.00 | 0.00 | 0.00 | 51 | 1019.7 |
| 20260902022230 | 77 | 269 | 0.0 | 0.0 | 0.00 | 0.00 | 0.00 | 52 | 1019.7 |
| 20260902021710 | 77 | 269 | 0.0 | 0.0 | 0.00 | 0.00 | 0.00 | 52 | 1019.7 |
| 20260902021204 | 78 | 269 | 0.0 | 0.0 | 0.00 | 0.00 | 0.00 | 51 | 1019.7 |
| 20260902020643 | 78 | 269 | 0.0 | 0.0 | 0.00 | 0.00 | 0.00 | 51 | 1019.4 |
| 20260902020142 | 78 | 255 | 0.0 | 0.0 | 0.00 | 0.00 | 0.00 | 51 | 1019.4 |
| 20260902015638 | 78 | 262 | 0.0 | 0.0 | 0.00 | 0.00 | 0.00 | 51 | 1019.0 |
| 20260902015132 | 78 | 258 | 0.0 | 0.0 | 0.00 | 0.00 | 0.00 | 51 | 1019.4 |
| 20260902014632 | 78 | 292 | 0.0 | 7.0 | 0.00 | 0.00 | 0.00 | 51 | 1019.0 |
| 20260902014111 | 78 | 316 | 0.0 | 7.0 | 0.00 | 0.00 | 0.00 | 51 | 1019.4 |
| 20260902014054 | 78 | 305 | 0.0 | 1.0 | 0.00 | 0.00 | 0.00 | 51 | 1019.4 |
| 20260902013320 | 78 | 256 | 0.0 | 9.0 | 0.00 | 0.00 | 0.00 | 52 | 1019.0 |
| 20260902012541 | 78 | 312 | 0.0 | 9.0 | 0.00 | 0.00 | 0.00 | 51 | 1019.0 |
| 20260902012036 | 79 | 226 | 0.0 | 7.0 | 0.00 | 0.00 | 0.00 | 50 | 1019.0 |
| 20260902011530 | 79 | 207 | 1.0 | 7.0 | 0.00 | 0.00 | 0.00 | 49 | 1019.4 |
| 20260902011015 | 80 | 227 | 0.0 | 8.0 | 0.00 | 0.00 | 0.00 | 47 | 1019.4 |
| 20260902010505 | 81 | 230 | 1.0 | 8.0 | 0.00 | 0.00 | 0.00 | 46 | 1019.0 |
| 20260902005944 | 83 | 209 | 0.0 | 4.0 | 0.00 | 0.00 | 0.00 | 43 | 1019.0 |
| 20260902005414 | 88 | 213 | 0.0 | 8.0 | 0.00 | 0.00 | 0.00 | 34 | 1019.4 |
| 20260902005344 | 88 | 132 | 1.0 | 8.0 | 0.00 | 0.00 | 0.00 | 30 | 1018.3 |
| 20260902004352 | 88 | 119 | 1.0 | 7.0 | 0.00 | 0.00 | 0.00 | 30 | 1018.7 |
| 20260902003847 | 88 | 133 | 4.0 | 7.0 | 0.00 | 0.00 | 0.00 | 29 | 1018.3 |
| 20260902003347 | 89 | 138 | 0.0 | 10.0 | 0.00 | 0.00 | 0.00 | 29 | 1018.3 |
| 20260902002841 | 89 | 132 | 0.0 | 10.0 | 0.00 | 0.00 | 0.00 | 29 | 1018.3 |
| 20260902002336 | 89 | 151 | 0.0 | 10.0 | 0.00 | 0.00 | 0.00 | 29 | 1018.3 |
| 20260902001815 | 89 | 155 | 2.0 | 9.0 | 0.00 | 0.00 | 0.00 | 29 | 1018.3 |
| 20260902001310 | 89 | 164 | 2.0 | 9.0 | 0.00 | 0.00 | 0.00 | 29 | 1018.3 |
| 20260902000805 | 89 | 119 | 0.0 | 8.0 | 0.00 | 0.00 | 0.00 | 29 | 1018.3 |
| 20260902000258 | 90 | 130 | 0.0 | 11.0 | 0.00 | 0.00 | 0.00 | 29 | 1018.0 |
| 20260901235747 | 90 | 145 | 0.0 | 11.0 | 0.00 | 0.00 | 0.00 | 29 | 1018.0 |
| 20260901235242 | 90 | 144 | 2.0 | 13.0 | 0.00 | 0.00 | 0.00 | 28 | 1018.3 |